Time;durP1;ratioP1;P1;durP2;ratioP2;P2;SDS_P1;SDS_P2;PMS_P1;PMS_P2;Temp;Humidity;BMP_temperature;BMP_pressure;BME280_temperature;BME280_humidity;BME280_pressure;Samples;Min_cycle;Max_cycle;Signal;HPM_P1;HPM_P2
2022/04/23 00:02:06;;;;;;;28.42;12.57;;;;;;;5.99;100.00;100919.44;4938491;29;20448;-84
2022/04/23 00:04:32;;;;;;;28.15;13.95;;;;;;;5.93;100.00;100923.41;4946528;29;20039;-84
2022/04/23 00:06:58;;;;;;;27.80;13.57;;;;;;;5.96;100.00;100928.50;4952202;29;20032;-85
2022/04/23 00:09:23;;;;;;;36.17;14.00;;;;;;;5.88;100.00;100923.81;4954224;28;20506;-84
2022/04/23 00:11:49;;;;;;;29.13;14.65;;;;;;;5.95;100.00;100934.78;4954008;28;20037;-85
2022/04/23 00:14:15;;;;;;;29.13;14.67;;;;;;;6.00;100.00;100927.28;4943017;29;20031;-85
2022/04/23 00:16:40;;;;;;;25.70;14.57;;;;;;;6.07;100.00;100923.13;4934242;29;20122;-87
2022/04/23 00:19:05;;;;;;;28.30;15.13;;;;;;;6.01;100.00;100922.81;4937741;29;20127;-85
2022/04/23 00:21:31;;;;;;;34.33;14.17;;;;;;;6.04;100.00;100922.53;4922269;29;20027;-84
2022/04/23 00:23:56;;;;;;;38.27;16.50;;;;;;;6.00;100.00;100923.78;4954196;29;20059;-84
2022/04/23 00:26:22;;;;;;;29.25;14.63;;;;;;;5.93;100.00;100910.16;4946308;29;20023;-84
2022/04/23 00:28:47;;;;;;;32.90;15.60;;;;;;;5.97;100.00;100916.94;4938674;28;20086;-84
2022/04/23 00:31:14;;;;;;;37.10;15.07;;;;;;;5.91;100.00;100923.53;4923084;29;20039;-84
2022/04/23 00:33:40;;;;;;;;;;;;;;;5.89;100.00;100924.63;4951738;29;20027;-85
2022/04/23 00:36:06;;;;;;;34.97;16.17;;;;;;;5.86;100.00;100916.97;4952092;29;19910;-86
2022/04/23 00:38:33;;;;;;;;;;;;;;;5.86;100.00;100924.91;4946764;29;20554;-85
2022/04/23 00:40:59;;;;;;;35.45;16.98;;;;;;;5.81;100.00;100925.28;4946335;29;19914;-85
2022/04/23 00:43:30;;;;;;;31.77;15.82;;;;;;;5.73;100.00;100922.41;4946292;29;20046;-84
2022/04/23 00:45:56;;;;;;;30.83;15.38;;;;;;;5.72;100.00;100926.03;4946084;29;20089;-85
2022/04/23 00:48:24;;;;;;;;;;;;;;;5.71;100.00;100932.28;4947049;29;20027;-84
2022/04/23 00:50:51;;;;;;;36.42;16.98;;;;;;;5.64;100.00;100921.38;4951109;28;20023;-85
2022/04/23 00:53:18;;;;;;;33.63;14.90;;;;;;;5.65;100.00;100922.22;4938037;29;20019;-85
2022/04/23 00:55:44;;;;;;;32.88;16.65;;;;;;;5.65;100.00;100927.53;4962216;28;20054;-85
2022/04/23 00:58:10;;;;;;;33.70;16.10;;;;;;;5.58;100.00;100926.34;4954445;29;21017;-84
2022/04/23 01:00:39;;;;;;;29.30;15.20;;;;;;;5.56;100.00;100922.97;4961050;28;20040;-87
2022/04/23 01:03:04;;;;;;;36.00;15.98;;;;;;;5.53;100.00;100934.66;4938217;29;20035;-85
2022/04/23 01:05:30;;;;;;;38.90;17.73;;;;;;;5.52;100.00;100932.97;4919976;29;20039;-85
2022/04/23 01:07:56;;;;;;;;;;;;;;;5.50;100.00;100932.25;4943112;28;20027;-85
2022/04/23 01:10:21;;;;;;;;;;;;;;;5.44;100.00;100925.66;4936801;29;19924;-84
2022/04/23 01:12:47;;;;;;;29.10;16.10;;;;;;;5.39;100.00;100917.25;4954247;29;19911;-84
2022/04/23 01:15:14;;;;;;;35.00;17.00;;;;;;;5.35;100.00;100922.91;4945769;29;20039;-84
2022/04/23 01:17:41;;;;;;;30.85;15.45;;;;;;;5.31;100.00;100921.47;4940759;29;20027;-84
2022/04/23 01:20:09;;;;;;;32.97;17.70;;;;;;;5.24;100.00;100915.81;4938035;29;20039;-84
2022/04/23 01:22:38;;;;;;;41.88;19.23;;;;;;;5.23;100.00;100917.63;4934631;29;20468;-84
2022/04/23 01:25:06;;;;;;;34.95;17.67;;;;;;;5.20;100.00;100917.91;4936090;29;20035;-85
2022/04/23 01:27:33;;;;;;;34.78;18.02;;;;;;;5.19;100.00;100913.56;4929754;29;20026;-84
2022/04/23 01:29:58;;;;;;;41.97;18.75;;;;;;;5.17;100.00;100919.94;4929056;29;20039;-85
2022/04/23 01:32:24;;;;;;;35.97;18.90;;;;;;;5.19;100.00;100910.06;4954295;29;20026;-86
2022/04/23 01:34:49;;;;;;;34.13;16.80;;;;;;;5.17;100.00;100918.13;4937433;29;20028;-84
2022/04/23 01:37:17;;;;;;;46.97;20.83;;;;;;;5.07;100.00;100907.44;4929956;29;20027;-86
2022/04/23 01:39:45;;;;;;;40.60;19.02;;;;;;;5.03;100.00;100905.16;4950405;28;20047;-85
2022/04/23 01:42:10;;;;;;;32.45;17.20;;;;;;;5.00;100.00;100903.59;4952673;29;20066;-88
2022/04/23 01:44:36;;;;;;;37.20;20.40;;;;;;;4.99;100.00;100909.88;4953931;29;20055;-86
2022/04/23 01:47:02;;;;;;;36.75;18.38;;;;;;;5.00;100.00;100908.91;4927776;29;20034;-84
2022/04/23 01:49:27;;;;;;;35.50;19.60;;;;;;;4.97;100.00;100911.78;4945428;28;20391;-83
2022/04/23 01:51:53;;;;;;;44.87;20.10;;;;;;;4.91;100.00;100906.97;4952532;29;20547;-85
2022/04/23 01:54:18;;;;;;;38.33;19.20;;;;;;;4.94;100.00;100905.88;4937116;29;20027;-85
2022/04/23 01:56:43;;;;;;;40.23;19.17;;;;;;;4.93;100.00;100899.75;4945070;29;20050;-87
2022/04/23 01:59:09;;;;;;;43.35;21.38;;;;;;;4.99;100.00;100909.88;4936845;28;20035;-85
2022/04/23 02:01:36;;;;;;;39.57;19.50;;;;;;;4.94;100.00;100905.88;4960928;28;20720;-84
2022/04/23 02:04:02;;;;;;;33.83;17.90;;;;;;;4.90;100.00;100905.31;4919274;29;20040;-84
2022/04/23 02:06:28;;;;;;;39.55;19.70;;;;;;;4.88;100.00;100907.22;4946630;29;20484;-84
2022/04/23 02:08:54;;;;;;;40.90;19.33;;;;;;;4.88;100.00;100907.22;4944063;28;20045;-84
2022/04/23 02:11:19;;;;;;;36.38;19.58;;;;;;;4.86;100.00;100909.16;4920572;29;20106;-84
2022/04/23 02:13:45;;;;;;;39.10;19.00;;;;;;;4.79;100.00;100902.66;4952733;28;20499;-85
2022/04/23 02:16:11;;;;;;;42.95;20.27;;;;;;;4.81;100.00;100908.69;4952754;29;20289;-85
2022/04/23 02:18:39;;;;;;;42.23;20.53;;;;;;;4.81;100.00;100912.16;4954319;28;20035;-84
2022/04/23 02:21:05;;;;;;;51.90;22.73;;;;;;;4.85;100.00;100910.13;4936238;29;20027;-84
2022/04/23 02:23:31;;;;;;;39.70;20.75;;;;;;;4.82;100.00;100913.88;4944644;29;20053;-85
2022/04/23 02:25:57;;;;;;;39.97;19.20;;;;;;;4.77;100.00;100909.88;4920639;29;20439;-84
2022/04/23 02:28:23;;;;;;;39.88;18.90;;;;;;;4.69;100.00;100907.84;4949496;29;20036;-85
2022/04/23 02:30:48;;;;;;;47.60;20.63;;;;;;;4.55;100.00;100900.16;4916290;29;20031;-85
2022/04/23 02:33:14;;;;;;;42.37;19.03;;;;;;;4.54;100.00;100899.31;4935895;29;20023;-84
2022/04/23 02:35:39;;;;;;;39.88;19.38;;;;;;;4.49;100.00;100901.47;4952347;29;20046;-84
2022/04/23 02:38:05;;;;;;;43.75;19.58;;;;;;;4.44;100.00;100898.34;4936022;29;20051;-85
2022/04/23 02:40:31;;;;;;;35.23;18.30;;;;;;;4.44;100.00;100908.91;4920189;29;20030;-86
2022/04/23 02:42:57;;;;;;;37.03;19.75;;;;;;;4.40;100.00;100902.16;4944019;29;20031;-85
2022/04/23 02:45:24;;;;;;;34.95;19.42;;;;;;;4.42;100.00;100908.19;4952023;29;20047;-84
2022/04/23 02:47:51;;;;;;;39.20;19.92;;;;;;;4.44;100.00;100903.63;4949074;29;20027;-86
2022/04/23 02:50:36;;;;;;;45.05;19.77;;;;;;;4.42;100.00;100898.47;4936123;29;20027;-84
2022/04/23 02:53:02;;;;;;;43.63;20.35;;;;;;;4.46;100.00;100907.00;4965869;28;20038;-85
2022/04/23 02:55:30;;;;;;;41.95;21.30;;;;;;;4.46;100.00;100907.00;4951300;29;20034;-84
2022/04/23 02:57:58;;;;;;;47.05;21.05;;;;;;;4.44;100.00;100909.75;4964632;28;20487;-86
2022/04/23 03:00:23;;;;;;;43.17;21.80;;;;;;;4.45;100.00;100915.91;4951192;28;20027;-84
2022/04/23 03:02:49;;;;;;;39.27;20.07;;;;;;;4.48;100.00;100907.72;4948117;29;20028;-84
2022/04/23 03:05:15;;;;;;;38.70;20.43;;;;;;;4.53;100.00;100910.84;4919572;29;20789;-84
2022/04/23 03:07:41;;;;;;;44.65;20.38;;;;;;;4.52;100.00;100906.53;4948083;29;20107;-85
2022/04/23 03:10:09;;;;;;;43.83;21.48;;;;;;;4.55;100.00;100911.56;4934054;29;20450;-84
2022/04/23 03:12:38;;;;;;;39.75;20.50;;;;;;;4.55;100.00;100914.22;4942999;28;20852;-86
2022/04/23 03:15:17;;;;;;;37.67;20.83;;;;;;;4.50;100.00;100913.72;4936706;29;20810;-84
2022/04/23 03:17:43;;;;;;;45.55;21.63;;;;;;;4.46;100.00;100907.00;4935103;29;20480;-85
2022/04/23 03:20:10;;;;;;;41.10;21.02;;;;;;;4.45;100.00;100910.59;4942802;28;20019;-84
2022/04/23 03:22:40;;;;;;;45.50;21.00;;;;;;;4.49;100.00;100906.75;4942716;29;20035;-84
2022/04/23 03:25:06;;;;;;;44.15;21.15;;;;;;;4.45;100.00;100905.31;4958686;28;20554;-86
2022/04/23 03:27:32;;;;;;;45.88;19.77;;;;;;;4.48;100.00;100907.72;4942927;29;20038;-84
2022/04/23 03:29:58;;;;;;;40.50;21.55;;;;;;;4.53;100.00;100905.56;4934735;29;20395;-85
2022/04/23 03:32:24;;;;;;;;;;;;;;;4.52;100.00;100908.31;4942698;29;20027;-84
2022/04/23 03:34:49;;;;;;;;;;;;;;;4.46;100.00;100907.00;5006044;23;20693;-86
2022/04/23 03:37:15;;;;;;;46.42;21.13;;;;;;;4.39;100.00;100905.78;4956326;28;19929;-88
2022/04/23 03:39:40;;;;;;;40.53;19.57;;;;;;;4.32;100.00;100902.78;4961167;28;20027;-87
2022/04/23 03:42:06;;;;;;;46.83;21.97;;;;;;;4.30;100.00;100902.03;4969537;28;20581;-87
2022/04/23 03:44:32;;;;;;;44.85;21.80;;;;;;;4.37;100.00;100902.41;4981771;28;20026;-87
2022/04/23 03:47:03;;;;;;;44.83;22.52;;;;;;;4.37;100.00;100902.41;4963190;28;20408;-87
2022/04/23 03:49:29;;;;;;;47.17;22.13;;;;;;;4.36;100.00;100903.38;4961792;28;20054;-85
2022/04/23 03:51:55;;;;;;;45.85;22.70;;;;;;;4.30;100.00;100904.69;4997057;28;20023;-86
2022/04/23 03:54:20;;;;;;;42.33;20.38;;;;;;;4.26;100.00;100903.25;4981956;28;20536;-88
2022/04/23 03:56:46;;;;;;;50.97;21.40;;;;;;;4.18;100.00;100903.81;4983241;28;20035;-90
2022/04/23 03:59:12;;;;;;;47.03;22.63;;;;;;;4.21;100.00;100903.63;4965283;28;20172;-87
2022/04/23 04:01:37;;;;;;;46.55;21.95;;;;;;;4.37;100.00;100907.69;4963752;28;20042;-86
2022/04/23 04:04:03;;;;;;;47.38;22.75;;;;;;;4.34;100.00;100897.38;4975202;28;20034;-87
2022/04/23 04:06:28;;;;;;;48.87;21.00;;;;;;;4.36;100.00;100912.16;4963364;28;20026;-88
2022/04/23 04:08:55;;;;;;;53.50;24.87;;;;;;;4.39;100.00;100911.06;4959080;28;20037;-87
2022/04/23 04:11:21;;;;;;;43.22;21.77;;;;;;;4.38;100.00;100914.69;4974605;28;20102;-86
2022/04/23 04:13:47;;;;;;;42.05;21.38;;;;;;;4.34;100.00;100907.94;4957297;28;20034;-86
2022/04/23 04:16:13;;;;;;;51.45;23.77;;;;;;;4.34;100.00;100906.13;4973091;28;20026;-85
2022/04/23 04:18:39;;;;;;;47.03;22.58;;;;;;;4.40;100.00;100908.31;4953921;28;20031;-85
2022/04/23 04:21:05;;;;;;;42.90;20.27;;;;;;;4.39;100.00;100900.50;4955386;28;20870;-85
2022/04/23 04:23:34;;;;;;;42.97;20.67;;;;;;;4.35;100.00;100906.97;4953859;28;20450;-87
2022/04/23 04:26:00;;;;;;;48.97;21.83;;;;;;;4.44;100.00;100914.19;4957680;28;20038;-88
2022/04/23 04:28:26;;;;;;;47.15;22.52;;;;;;;4.50;100.00;100910.25;4957077;28;20018;-85
2022/04/23 04:33:36;;;;;;;40.88;21.65;;;;;;;4.54;100.00;100911.69;4973059;28;20030;-87
2022/04/23 04:36:02;;;;;;;41.72;21.23;;;;;;;4.55;100.00;100911.56;4974042;28;20386;-85
2022/04/23 04:38:27;;;;;;;40.78;21.90;;;;;;;4.57;100.00;100909.66;4957604;28;20035;-85
2022/04/23 04:40:52;;;;;;;40.43;20.77;;;;;;;4.57;100.00;100908.81;4981667;28;20038;-86
2022/04/23 04:43:18;;;;;;;40.33;20.70;;;;;;;4.60;100.00;100904.13;4993977;28;20030;-85
2022/04/23 04:45:43;;;;;;;41.97;21.33;;;;;;;4.63;100.00;100903.03;4960807;28;20114;-85
2022/04/23 04:48:08;;;;;;;37.03;18.93;;;;;;;4.67;100.00;100908.94;4960516;28;20041;-85
2022/04/23 04:50:34;;;;;;;41.67;20.57;;;;;;;4.70;100.00;100903.38;4976351;28;20893;-86
2022/04/23 04:52:59;;;;;;;40.73;20.10;;;;;;;4.78;100.00;100903.66;4959939;28;20482;-86
2022/04/23 04:55:25;;;;;;;37.27;19.23;;;;;;;4.84;100.00;100913.72;4959969;28;20027;-87
2022/04/23 04:57:50;;;;;;;39.67;20.23;;;;;;;4.90;100.00;100915.06;4959658;28;20027;-86
2022/04/23 05:00:16;;;;;;;37.40;19.33;;;;;;;4.91;100.00;100899.03;4975957;28;20034;-85
2022/04/23 05:02:42;;;;;;;43.03;20.90;;;;;;;4.97;100.00;100895.91;4959565;28;20026;-85
2022/04/23 05:05:08;;;;;;;44.37;20.77;;;;;;;5.11;100.00;100907.22;4959420;28;20525;-86
2022/04/23 05:07:33;;;;;;;42.25;20.30;;;;;;;5.20;100.00;100911.78;4975861;28;20037;-85
2022/04/23 05:10:03;;;;;;;38.03;19.83;;;;;;;5.24;100.00;100915.81;4992902;28;20034;-85
2022/04/23 05:12:29;;;;;;;37.72;19.75;;;;;;;5.34;100.00;100918.56;4955827;28;20411;-85
2022/04/23 05:14:54;;;;;;;47.08;20.45;;;;;;;5.45;100.00;100910.59;4964961;28;20076;-85
2022/04/23 05:17:20;;;;;;;43.37;20.93;;;;;;;5.73;100.00;100927.72;4959284;28;20038;-88
2022/04/23 05:19:45;;;;;;;43.73;20.23;;;;;;;6.41;100.00;100924.72;4975675;28;20161;-88
2022/04/23 05:22:10;;;;;;;34.33;17.07;;;;;;;7.73;100.00;100934.38;4959026;28;20065;-85
2022/04/23 05:24:36;;;;;;;26.17;15.37;;;;;;;8.56;100.00;100921.38;4955809;28;20034;-86
2022/04/23 05:27:01;;;;;;;23.20;14.57;;;;;;;9.02;100.00;100899.19;4990702;28;20056;-85
2022/04/23 05:29:26;;;;;;;21.53;13.17;;;;;;;9.68;100.00;100887.38;4967172;28;20060;-86
2022/04/23 05:31:52;;;;;;;26.33;12.97;;;;;;;10.08;100.00;100840.66;4975154;28;20427;-86
2022/04/23 05:34:17;;;;;;;25.67;13.43;;;;;;;10.83;100.00;100796.50;4955706;28;20551;-85
2022/04/23 05:36:42;;;;;;;21.43;12.13;;;;;;;11.44;100.00;100747.13;4947036;28;20559;-86
2022/04/23 05:39:08;;;;;;;20.40;13.47;;;;;;;11.59;100.00;100680.47;4958206;28;20041;-87
2022/04/23 05:41:33;;;;;;;20.37;12.60;;;;;;;11.88;100.00;100645.13;4979968;28;20014;-86
2022/04/23 05:43:59;;;;;;;24.63;14.03;;;;;;;11.82;99.05;100562.84;4986251;28;20498;-85
2022/04/23 05:46:24;;;;;;;29.37;14.13;;;;;;;11.95;95.54;100549.78;4967175;28;20693;-86
2022/04/23 05:48:49;;;;;;;22.87;11.90;;;;;;;12.48;92.96;100574.03;4958950;28;20033;-86
2022/04/23 05:51:15;;;;;;;23.97;13.93;;;;;;;12.91;90.15;100560.91;4959453;28;20034;-87
2022/04/23 05:53:41;;;;;;;17.55;10.85;;;;;;;13.30;86.50;100551.84;4975527;28;20022;-85
2022/04/23 05:56:07;;;;;;;16.23;11.13;;;;;;;13.22;86.33;100538.47;4958282;28;20077;-87
2022/04/23 05:58:36;;;;;;;19.53;11.53;;;;;;;13.27;82.91;100511.94;4958894;28;20114;-86
2022/04/23 06:01:02;;;;;;;18.50;11.50;;;;;;;13.57;81.98;100530.72;4974915;28;20639;-85
2022/04/23 06:03:28;;;;;;;;;;;;;;;13.83;80.25;100525.66;4956098;28;20022;-85
2022/04/23 06:05:53;;;;;;;;;;;;;;;14.02;79.56;100534.13;4974836;28;19913;-86
2022/04/23 06:08:18;;;;;;;17.57;11.23;;;;;;;14.13;76.80;100496.06;4958714;28;19932;-84
2022/04/23 06:10:44;;;;;;;21.43;11.40;;;;;;;14.14;77.75;100540.66;4958406;28;20026;-85
2022/04/23 06:13:09;;;;;;;19.63;11.33;;;;;;;14.33;75.55;100521.25;4974102;28;21456;-86
2022/04/23 06:15:35;;;;;;;20.80;11.30;;;;;;;14.39;76.24;100532.22;4958508;28;20088;-89
2022/04/23 06:18:00;;;;;;;17.53;11.50;;;;;;;14.70;74.77;100531.91;4958552;28;20026;-85
2022/04/23 06:20:25;;;;;;;17.47;11.93;;;;;;;14.44;73.15;100457.28;4974816;28;20038;-86
2022/04/23 06:22:51;;;;;;;15.97;11.40;;;;;;;14.14;74.30;100500.38;4958487;28;20033;-87
2022/04/23 06:25:16;;;;;;;16.77;10.40;;;;;;;14.67;73.22;100526.94;4974391;28;20502;-86
2022/04/23 06:27:41;;;;;;;17.13;10.93;;;;;;;14.32;71.24;100414.84;4960837;28;20045;-86
2022/04/23 06:30:10;;;;;;;19.23;11.97;;;;;;;13.56;74.33;100432.53;4976206;28;20030;-86
2022/04/23 06:32:37;;;;;;;22.90;11.15;;;;;;;14.09;76.02;100562.72;4975583;28;20032;-85
2022/04/23 06:35:03;;;;;;;15.82;10.38;;;;;;;14.27;72.59;100472.84;4959293;28;20577;-85
2022/04/23 06:37:29;;;;;;;18.40;11.88;;;;;;;14.29;73.23;100516.44;4974559;28;20019;-86
2022/04/23 06:39:54;;;;;;;19.13;10.50;;;;;;;14.73;72.30;100537.72;4958754;28;20811;-84
2022/04/23 06:42:19;;;;;;;20.00;10.10;;;;;;;14.71;71.63;100506.72;4958391;28;20018;-88
2022/04/23 06:44:45;;;;;;;15.17;9.97;;;;;;;14.78;71.93;100529.91;4958292;28;20026;-86
2022/04/23 06:47:10;;;;;;;18.03;9.67;;;;;;;15.04;70.57;100520.38;4958897;28;20378;-86
2022/04/23 06:49:35;;;;;;;15.73;10.47;;;;;;;14.48;70.14;100426.31;4971745;28;20034;-86
2022/04/23 06:52:01;;;;;;;16.70;10.87;;;;;;;14.55;72.41;100534.69;4973212;28;20030;-85
2022/04/23 06:54:26;;;;;;;20.47;10.40;;;;;;;14.66;69.37;100468.84;4955501;28;20027;-85
2022/04/23 06:56:52;;;;;;;15.77;10.10;;;;;;;14.91;69.24;100496.09;4956158;28;20034;-88
2022/04/23 06:59:17;;;;;;;16.25;9.45;;;;;;;14.96;68.27;100472.97;4983486;28;20045;-85
2022/04/23 07:01:43;;;;;;;19.77;10.27;;;;;;;14.71;69.95;100494.09;4966744;28;20023;-86
2022/04/23 07:04:09;;;;;;;15.73;10.23;;;;;;;15.05;70.45;100562.34;4975525;28;20100;-85
2022/04/23 07:06:35;;;;;;;15.85;10.50;;;;;;;14.51;69.79;100475.09;4959239;28;20051;-86
2022/04/23 07:09:00;;;;;;;13.95;9.32;;;;;;;14.69;70.98;100539.13;4993446;28;20042;-87
2022/04/23 07:11:25;;;;;;;18.53;10.27;;;;;;;14.79;69.99;100519.97;4955991;28;20038;-86
2022/04/23 07:13:51;;;;;;;19.13;10.00;;;;;;;15.06;69.77;100547.06;4954172;28;20042;-86
2022/04/23 07:16:17;;;;;;;12.17;9.57;;;;;;;15.05;68.34;100508.56;4960669;28;20058;-87
2022/04/23 07:18:43;;;;;;;14.25;9.55;;;;;;;15.23;68.04;100520.69;4955146;28;20051;-87
2022/04/23 07:21:08;;;;;;;17.40;9.85;;;;;;;15.46;67.02;100499.69;4964954;28;20046;-86
2022/04/23 07:26:18;;;;;;;15.85;9.65;;;;;;;15.38;64.83;100400.31;4974157;28;20034;-86
2022/04/23 07:28:44;;;;;;;19.67;10.53;;;;;;;15.25;65.65;100435.25;4960153;28;20017;-85
2022/04/23 07:31:09;;;;;;;15.18;9.25;;;;;;;15.40;66.19;100479.81;4959330;28;20068;-86
2022/04/23 07:39:03;;;;;;;11.13;8.77;;;;;;;15.92;63.64;100453.28;4974136;28;20038;-86
2022/04/23 07:41:28;;;;;;;12.48;8.43;;;;;;;15.81;62.08;100381.22;4959748;28;20030;-86
2022/04/23 07:43:54;;;;;;;12.53;8.53;;;;;;;15.69;62.60;100407.88;4974536;28;20030;-86
2022/04/23 07:46:20;;;;;;;11.93;8.77;;;;;;;15.74;62.44;100409.97;4991031;28;20026;-86
2022/04/23 07:48:46;;;;;;;13.57;9.03;;;;;;;15.36;62.17;100351.31;4958307;28;20502;-85
2022/04/23 07:51:11;;;;;;;11.18;8.98;;;;;;;15.92;62.14;100450.59;4958601;28;20029;-87
2022/04/23 07:53:37;;;;;;;19.02;8.98;;;;;;;16.22;62.87;100483.38;4957354;28;20041;-87
2022/04/23 07:56:04;;;;;;;12.60;9.07;;;;;;;16.27;61.12;100423.47;4955437;28;20033;-86
2022/04/23 07:58:33;;;;;;;10.73;7.72;;;;;;;16.33;60.02;100402.97;4973136;28;20030;-87
2022/04/23 08:00:58;;;;;;;11.50;8.48;;;;;;;15.73;56.38;100141.88;4972961;28;20050;-88
2022/04/23 08:03:24;;;;;;;16.03;8.47;;;;;;;15.82;58.17;100283.28;4972906;28;20105;-89
2022/04/23 08:05:49;;;;;;;12.17;8.27;;;;;;;15.90;58.53;100344.97;4958096;28;20023;-87
2022/04/23 08:08:18;;;;;;;12.00;7.60;;;;;;;15.73;58.06;100289.88;4956803;28;20451;-87
2022/04/23 08:10:44;;;;;;;9.65;6.78;;;;;;;16.05;55.45;100212.81;4982630;28;20030;-86
2022/04/23 08:13:11;;;;;;;11.35;7.80;;;;;;;15.05;55.13;100056.94;4960512;28;20077;-88
2022/04/23 08:15:36;;;;;;;;;;;;;;;14.95;54.12;100040.41;4977176;28;20125;-87
2022/04/23 08:18:01;;;;;;;;;;;;;;;15.37;56.14;100230.06;4977043;28;19996;-87
2022/04/23 08:20:30;;;;;;;8.47;6.17;;;;;;;16.19;54.77;100272.88;4957607;28;19913;-87
2022/04/23 08:22:56;;;;;;;10.75;7.20;;;;;;;15.85;54.24;100195.88;4965848;28;20070;-87
2022/04/23 08:25:21;;;;;;;13.10;7.57;;;;;;;15.55;54.99;100181.00;4957192;28;20042;-87
2022/04/23 08:27:54;;;;;;;12.38;7.22;;;;;;;15.77;54.80;100188.88;4956821;28;20034;-87
2022/04/23 08:30:36;;;;;;;7.72;5.82;;;;;;;16.73;52.75;100247.38;4969409;28;20133;-87
2022/04/23 08:33:06;;;;;;;9.82;6.68;;;;;;;16.91;51.21;100194.66;4976069;28;20045;-88
2022/04/23 08:35:33;;;;;;;8.20;6.07;;;;;;;17.49;49.97;100213.31;4976623;28;20058;-87
2022/04/23 08:37:59;;;;;;;5.47;4.80;;;;;;;17.85;46.24;100030.84;4960116;28;20076;-87
2022/04/23 08:40:34;;;;;;;18.83;6.47;;;;;;;17.05;47.46;100024.44;4958418;28;20426;-90
2022/04/23 08:42:59;;;;;;;8.50;6.30;;;;;;;16.66;46.13;99874.66;4965943;28;20783;-87
2022/04/23 08:45:24;;;;;;;7.40;6.17;;;;;;;16.47;46.76;99884.59;4966492;28;20085;-90
2022/04/23 08:47:50;;;;;;;7.27;5.33;;;;;;;16.31;47.25;99942.56;4976103;28;20058;-89
2022/04/23 08:50:16;;;;;;;8.13;5.10;;;;;;;16.20;47.42;99914.47;4975585;28;20030;-87
2022/04/23 08:52:43;;;;;;;7.57;5.07;;;;;;;16.43;48.85;100091.66;4959113;28;20030;-86
2022/04/23 08:55:09;;;;;;;5.15;3.90;;;;;;;17.57;46.15;100091.56;4975746;28;20034;-86
2022/04/23 08:57:38;;;;;;;8.25;5.00;;;;;;;16.93;42.57;99732.34;4968134;28;20037;-88
2022/04/23 09:00:08;;;;;;;5.75;5.03;;;;;;;17.72;44.03;100008.34;4959840;28;20453;-86
2022/04/23 09:02:35;;;;;;;5.50;4.40;;;;;;;18.35;44.28;100076.47;4956330;28;20034;-87
2022/04/23 09:05:00;;;;;;;8.98;6.03;;;;;;;18.02;46.15;100112.03;4955673;28;20067;-87
2022/04/23 09:07:27;;;;;;;9.77;5.20;;;;;;;18.22;45.85;100125.31;4960249;28;20097;-86
2022/04/23 09:09:54;;;;;;;8.93;5.90;;;;;;;18.56;45.74;100140.81;4960155;28;20045;-87
2022/04/23 09:12:24;;;;;;;11.05;6.20;;;;;;;19.48;43.82;100174.81;4956100;28;20053;-87
2022/04/23 09:14:51;;;;;;;4.72;4.30;;;;;;;19.98;41.54;100112.00;4972328;28;20064;-88
2022/04/23 09:25:44;;;;;;;6.03;4.32;;;;;;;19.67;41.07;99996.78;4983338;28;20497;-86
2022/04/23 09:28:17;;;;;;;4.85;3.83;;;;;;;19.30;39.42;99787.91;4960254;28;20126;-90
2022/04/23 09:30:44;;;;;;;4.65;3.70;;;;;;;18.71;40.96;99826.78;4998847;28;20034;-87
2022/04/23 09:33:10;;;;;;;7.43;4.97;;;;;;;17.36;40.95;99609.88;4981314;28;20109;-90
2022/04/23 09:35:35;;;;;;;4.00;3.60;;;;;;;18.55;42.24;99974.28;4977196;28;20131;-87
2022/04/23 09:38:20;;;;;;;7.10;4.22;;;;;;;18.81;40.70;99819.97;4973045;28;20034;-87
2022/04/23 09:40:56;;;;;;;5.93;4.05;;;;;;;19.59;40.27;99997.16;4974542;28;20030;-87
2022/04/23 09:43:29;;;;;;;6.13;4.57;;;;;;;19.99;39.02;99924.00;4983402;28;20031;-87
2022/04/23 09:46:05;;;;;;;5.07;4.25;;;;;;;20.64;39.38;100060.94;4975413;28;20140;-88
2022/04/23 09:48:31;;;;;;;5.70;4.30;;;;;;;20.69;37.29;99858.69;4992314;28;20026;-89
2022/04/23 09:50:57;;;;;;;4.93;4.05;;;;;;;20.95;39.09;100022.63;4991535;28;20679;-89
2022/04/23 09:53:27;;;;;;;4.80;4.18;;;;;;;20.54;37.80;99872.81;4966645;28;20035;-88
2022/04/23 09:55:53;;;;;;;6.68;4.15;;;;;;;21.17;37.36;99949.41;4958545;28;20117;-87
2022/04/23 09:58:18;;;;;;;9.90;5.13;;;;;;;21.57;35.41;99809.78;4974928;28;20441;-87
2022/04/23 10:00:45;;;;;;;3.63;3.33;;;;;;;21.42;36.35;99860.16;4971240;28;20681;-87
2022/04/23 10:03:12;;;;;;;4.45;4.03;;;;;;;21.24;36.83;99855.03;4973961;28;20018;-89
2022/04/23 10:05:40;;;;;;;5.60;4.55;;;;;;;20.85;37.34;99844.25;4955116;28;20034;-86
2022/04/23 10:08:11;;;;;;;6.40;4.43;;;;;;;20.60;38.16;99858.28;4949070;28;20022;-87
2022/04/23 10:10:49;;;;;;;5.35;4.60;;;;;;;19.46;36.83;99529.19;4991671;28;20031;-87
2022/04/23 10:13:16;;;;;;;5.05;4.53;;;;;;;18.41;38.37;99510.78;4974566;28;20041;-89
2022/04/23 10:15:46;;;;;;;6.05;3.70;;;;;;;18.33;39.22;99605.72;4975052;28;20104;-86
2022/04/23 10:18:12;;;;;;;5.65;4.32;;;;;;;17.73;39.33;99485.47;4958940;28;20512;-86
2022/04/23 10:20:40;;;;;;;8.07;5.03;;;;;;;17.94;42.49;99848.53;4958751;28;20026;-85
2022/04/23 10:23:44;;;;;;;5.43;4.80;;;;;;;19.70;42.39;100099.22;4958087;28;20485;-85
2022/04/23 10:26:35;;;;;;;8.80;5.35;;;;;;;18.65;40.20;99703.38;4958336;28;21230;-86
2022/04/23 10:29:06;;;;;;;5.68;4.82;;;;;;;18.71;39.11;99679.97;4959157;28;20070;-86
2022/04/23 10:31:31;;;;;;;7.05;4.68;;;;;;;19.31;40.82;99933.78;4957903;28;20030;-86
2022/04/23 10:33:57;;;;;;;8.63;5.70;;;;;;;18.38;41.99;99818.47;4956822;28;20026;-88
2022/04/23 10:36:23;;;;;;;7.72;5.93;;;;;;;19.72;41.32;100023.16;4966079;28;20030;-87
2022/04/23 10:38:53;;;;;;;7.00;5.75;;;;;;;19.76;41.97;100044.13;4955146;28;20062;-85
2022/04/23 10:41:22;;;;;;;10.50;6.93;;;;;;;20.16;41.68;100110.19;4984188;28;20034;-86
2022/04/23 10:43:57;;;;;;;7.95;6.35;;;;;;;19.44;43.64;100094.28;4958074;28;20018;-85
2022/04/23 10:46:38;;;;;;;7.43;6.03;;;;;;;20.58;42.89;100246.31;4951399;28;20030;-86
2022/04/23 10:49:24;;;;;;;12.02;7.22;;;;;;;21.19;41.79;100234.94;4956772;28;20074;-86
2022/04/23 10:51:56;;;;;;;8.90;7.30;;;;;;;20.86;41.23;100095.44;4957972;28;20041;-88
2022/04/23 10:54:47;;;;;;;6.72;6.03;;;;;;;21.47;40.91;100205.06;4951905;28;20057;-85
2022/04/23 10:57:13;;;;;;;6.65;5.28;;;;;;;21.26;40.92;100148.78;4974189;28;20037;-86
2022/04/23 10:59:49;;;;;;;9.25;6.18;;;;;;;21.10;40.79;100100.75;4957400;28;20064;-87
2022/04/23 11:02:21;;;;;;;8.45;5.90;;;;;;;21.39;40.47;100129.41;4973101;28;20079;-86
2022/04/23 11:13:30;;;;;;;8.77;6.40;;;;;;;18.60;43.07;99751.13;4973059;28;20561;-87
2022/04/23 11:16:16;;;;;;;10.07;7.78;;;;;;;20.16;43.28;100094.75;4973245;28;20057;-87
2022/04/23 11:18:42;;;;;;;;;;;;;;;20.16;43.33;100093.94;4957813;28;20475;-86
2022/04/23 11:21:24;;;;;;;11.20;7.60;;;;;;;21.14;41.77;100131.72;4957111;28;20000;-86
2022/04/23 11:23:51;;;;;;;10.65;8.00;;;;;;;19.36;41.66;99759.84;4957449;28;20034;-86
2022/04/23 11:26:26;;;;;;;13.25;8.65;;;;;;;18.19;45.67;99885.31;4974078;28;20561;-87
2022/04/23 11:28:59;;;;;;;8.77;7.38;;;;;;;19.03;44.00;99974.31;4973478;28;20038;-87
2022/04/23 11:31:26;;;;;;;10.90;7.85;;;;;;;18.01;44.31;99762.03;4990809;28;20463;-87
2022/04/23 11:33:55;;;;;;;;;;;;;;;18.79;46.46;100103.31;4957148;28;20018;-88
2022/04/23 11:36:26;;;;;;;12.93;8.63;;;;;;;19.12;46.41;100186.63;4957671;28;19913;-86
2022/04/23 11:38:52;;;;;;;8.32;6.53;;;;;;;20.34;43.79;100207.56;4954399;28;20035;-87
2022/04/23 11:41:28;;;;;;;10.70;8.38;;;;;;;20.64;41.04;100020.25;4959207;28;20025;-86
2022/04/23 11:43:53;;;;;;;12.88;8.38;;;;;;;19.88;41.17;99865.31;4976129;28;20053;-87
2022/04/23 11:46:19;;;;;;;;;;;;;;;17.83;42.66;99612.56;4967380;28;20033;-87
2022/04/23 11:48:46;;;;;;;;;;;;;;;18.26;43.47;99777.94;4968081;28;19914;-86